Terminal Aerodrome Forecast
Issued by NWS

Home | Current Version | Previous Version | Text Only | Print | Product List | Glossary On
Versions: 1 2 3 4 5 6 7 8 9 10 11 12 13 14 15 16
000
FTUS44 KOUN 041125
TAFHBR
TAF
KHBR 041125Z 0412/0512 34005KT P6SM FEW006 OVC016
      TEMPO 0412/0414 BKN008
     FM041400 34008KT P6SM BKN018
     FM041600 01009KT P6SM FEW250=

USA.gov is the U.S. government's official web portal to all federal, state and local government web resources and services.